createdAt,value
2023-04-23T00:01:48.065Z,11.32
2023-04-23T00:04:16.469Z,11.33
2023-04-23T00:06:43.404Z,11.31
2023-04-23T00:09:14.052Z,11.31
2023-04-23T00:11:40.727Z,11.25
2023-04-23T00:14:07.462Z,11.22
2023-04-23T00:16:34.226Z,11.24
2023-04-23T00:19:01.011Z,11.26
2023-04-23T00:21:27.651Z,11.22
2023-04-23T00:23:55.976Z,11.23
2023-04-23T00:26:22.356Z,11.25
2023-04-23T00:28:49.135Z,11.26
2023-04-23T00:31:15.741Z,11.23
2023-04-23T00:33:42.329Z,11.23
2023-04-23T00:36:09.128Z,11.29
2023-04-23T00:38:36.118Z,11.30
2023-04-23T00:41:02.828Z,11.23
2023-04-23T00:43:29.554Z,11.29
2023-04-23T00:45:56.569Z,11.15
2023-04-23T00:48:24.287Z,11.11
2023-04-23T00:50:59.203Z,11.11
2023-04-23T00:53:27.263Z,11.10
2023-04-23T00:55:53.973Z,11.13
2023-04-23T00:58:23.219Z,11.02
2023-04-23T01:00:51.900Z,10.98
2023-04-23T01:03:21.781Z,10.90
2023-04-23T01:05:51.501Z,10.84
2023-04-23T01:08:18.647Z,10.78
2023-04-23T01:10:46.244Z,10.74
2023-04-23T01:13:15.755Z,10.70
2023-04-23T01:15:44.155Z,10.69
2023-04-23T01:18:12.683Z,10.62
2023-04-23T01:20:40.342Z,10.58
2023-04-23T01:23:07.086Z,10.58
2023-04-23T01:25:35.150Z,10.60
2023-04-23T01:28:01.947Z,10.58
2023-04-23T01:30:29.225Z,10.50
2023-04-23T01:32:56.602Z,10.41
2023-04-23T01:35:24.739Z,10.35
2023-04-23T01:37:54.450Z,10.33
2023-04-23T01:40:21.077Z,10.35
2023-04-23T01:42:51.058Z,10.35
2023-04-23T01:45:20.444Z,10.34
2023-04-23T01:47:50.684Z,10.31
2023-04-23T01:50:17.233Z,10.33
2023-04-23T01:52:45.606Z,10.32
2023-04-23T01:55:12.065Z,10.27
2023-04-23T01:57:38.758Z,10.29
2023-04-23T02:00:15.404Z,10.23
2023-04-23T02:02:43.663Z,10.18
2023-04-23T02:05:13.609Z,10.13
2023-04-23T02:07:40.639Z,10.13
2023-04-23T02:10:09.204Z,10.19
2023-04-23T02:12:36.961Z,10.17
2023-04-23T02:15:04.355Z,10.12
2023-04-23T02:17:30.942Z,10.10
2023-04-23T02:19:57.654Z,10.05
2023-04-23T02:22:26.430Z,10.03
2023-04-23T02:24:53.221Z,10.01
2023-04-23T02:27:20.226Z,10.00
2023-04-23T02:29:48.128Z,9.99
2023-04-23T02:32:15.106Z,9.97
2023-04-23T02:34:42.203Z,9.94
2023-04-23T02:37:08.900Z,9.88
2023-04-23T02:39:35.935Z,9.81
2023-04-23T02:42:02.441Z,9.80
2023-04-23T02:44:28.981Z,9.71
2023-04-23T02:46:56.151Z,9.69
2023-04-23T02:49:23.037Z,9.67
2023-04-23T02:51:49.679Z,9.60
2023-04-23T02:54:16.512Z,9.57
2023-04-23T02:56:43.009Z,9.49
2023-04-23T02:59:09.999Z,9.48
2023-04-23T03:01:37.048Z,9.46
2023-04-23T03:04:03.862Z,9.46
2023-04-23T03:06:32.061Z,9.39
2023-04-23T03:08:58.527Z,9.46
2023-04-23T03:11:25.448Z,9.39
2023-04-23T03:13:51.922Z,9.36
2023-04-23T03:16:18.594Z,9.33
2023-04-23T03:18:45.370Z,9.28
2023-04-23T03:21:11.981Z,9.22
2023-04-23T03:23:39.476Z,9.18
2023-04-23T03:26:05.893Z,9.16
2023-04-23T03:28:33.199Z,9.10
2023-04-23T03:30:59.740Z,9.09
2023-04-23T03:33:26.668Z,9.07
2023-04-23T03:35:53.204Z,9.11
2023-04-23T03:38:20.059Z,9.07
2023-04-23T03:40:46.966Z,9.07
2023-04-23T03:43:13.334Z,9.21
2023-04-23T03:45:39.760Z,9.23
2023-04-23T03:48:06.288Z,9.25
2023-04-23T03:50:34.765Z,9.30
2023-04-23T03:53:01.433Z,9.16
2023-04-23T03:55:28.304Z,9.11
2023-04-23T03:57:55.076Z,9.12
2023-04-23T04:00:21.748Z,9.12
2023-04-23T04:02:48.402Z,9.10
2023-04-23T04:05:15.142Z,9.09
2023-04-23T04:07:42.253Z,9.03
2023-04-23T04:10:09.106Z,8.97
2023-04-23T04:12:36.688Z,9.09
2023-04-23T04:15:04.844Z,9.15
2023-04-23T04:17:31.453Z,9.35
2023-04-23T04:19:57.934Z,9.38
2023-04-23T04:22:24.736Z,9.49
2023-04-23T04:24:53.307Z,9.57
2023-04-23T04:27:20.244Z,9.69
2023-04-23T04:29:46.847Z,9.71
2023-04-23T04:32:13.850Z,9.77
2023-04-23T04:34:40.791Z,9.88
2023-04-23T04:37:07.666Z,9.95
2023-04-23T04:39:34.316Z,9.98
2023-04-23T04:42:02.767Z,9.97
2023-04-23T04:44:30.675Z,9.98
2023-04-23T04:46:57.274Z,10.04
2023-04-23T04:49:24.173Z,10.02
2023-04-23T04:51:51.712Z,10.06
2023-04-23T04:54:18.156Z,10.12
2023-04-23T04:56:44.792Z,10.12
2023-04-23T04:59:11.201Z,10.19
2023-04-23T05:01:38.256Z,10.25
2023-04-23T05:04:04.983Z,10.30
2023-04-23T05:06:32.382Z,10.33
2023-04-23T05:08:59.258Z,11.02
2023-04-23T05:11:26.317Z,12.92
2023-04-23T05:13:52.924Z,14.73
2023-04-23T05:16:19.579Z,15.73
2023-04-23T05:18:46.499Z,16.65
2023-04-23T05:21:14.286Z,17.19
2023-04-23T05:23:41.089Z,16.76
2023-04-23T05:26:07.940Z,17.30
2023-04-23T05:28:34.777Z,18.09
2023-04-23T05:31:01.248Z,18.32
2023-04-23T05:33:33.409Z,18.42
2023-04-23T05:36:02.753Z,17.71
2023-04-23T05:38:29.363Z,16.66
2023-04-23T05:40:55.872Z,15.41
2023-04-23T05:43:22.800Z,14.58
2023-04-23T05:45:49.378Z,14.66
2023-04-23T05:48:16.069Z,14.54
2023-04-23T05:50:42.805Z,13.86
2023-04-23T05:53:09.770Z,13.57
2023-04-23T05:55:36.778Z,13.35
2023-04-23T05:58:03.253Z,13.19
2023-04-23T06:00:30.386Z,13.12
2023-04-23T06:02:56.937Z,13.05
2023-04-23T06:05:23.663Z,12.88
2023-04-23T06:07:50.346Z,12.86
2023-04-23T06:10:16.898Z,12.85
2023-04-23T06:12:43.365Z,12.84
2023-04-23T06:15:10.839Z,12.94
2023-04-23T06:17:37.660Z,12.98
2023-04-23T06:20:05.127Z,13.04
2023-04-23T06:22:32.556Z,12.91
2023-04-23T06:24:59.377Z,12.90
2023-04-23T06:27:27.451Z,12.82
2023-04-23T06:29:53.963Z,12.78
2023-04-23T06:32:21.712Z,12.85
2023-04-23T06:35:00.043Z,12.95
2023-04-23T06:37:29.860Z,13.08
2023-04-23T06:39:56.703Z,13.24
2023-04-23T06:42:23.193Z,13.26
2023-04-23T06:44:49.794Z,13.44
2023-04-23T06:47:16.551Z,13.42
2023-04-23T06:49:42.978Z,13.38
2023-04-23T06:52:09.831Z,13.34
2023-04-23T06:54:36.250Z,13.37
2023-04-23T06:57:02.764Z,13.34
2023-04-23T06:59:29.148Z,13.27
2023-04-23T07:01:55.708Z,13.21
2023-04-23T07:04:22.524Z,13.11
2023-04-23T07:06:49.047Z,13.01
2023-04-23T07:09:15.524Z,12.92
2023-04-23T07:11:42.122Z,12.82
2023-04-23T07:14:09.268Z,12.76
2023-04-23T07:16:36.075Z,12.74
2023-04-23T07:19:02.864Z,12.72
2023-04-23T07:21:29.633Z,12.75
2023-04-23T07:24:06.686Z,12.85
2023-04-23T07:26:33.886Z,13.02
2023-04-23T07:29:01.291Z,13.02
2023-04-23T07:31:28.984Z,13.18
2023-04-23T07:33:56.205Z,13.39
2023-04-23T07:36:22.861Z,13.63
2023-04-23T07:38:49.582Z,13.91
2023-04-23T07:41:16.339Z,14.26
2023-04-23T07:43:42.834Z,14.31
2023-04-23T07:46:09.811Z,14.25
2023-04-23T07:48:36.413Z,14.35
2023-04-23T07:51:03.057Z,14.16
2023-04-23T07:53:30.071Z,14.06
2023-04-23T07:55:57.401Z,14.03
2023-04-23T07:58:26.817Z,14.07
2023-04-23T08:00:53.238Z,14.07
2023-04-23T08:03:21.452Z,14.16
2023-04-23T08:05:48.130Z,14.28
2023-04-23T08:08:14.707Z,14.42
2023-04-23T08:10:41.567Z,14.60
2023-04-23T08:13:08.376Z,14.73
2023-04-23T08:15:34.820Z,14.73
2023-04-23T08:18:01.475Z,14.87
2023-04-23T08:20:28.087Z,15.11
2023-04-23T08:22:55.593Z,15.28
2023-04-23T08:25:22.033Z,15.26
2023-04-23T08:27:48.626Z,15.23
2023-04-23T08:30:15.454Z,15.20
2023-04-23T08:32:42.075Z,15.14
2023-04-23T08:35:09.464Z,15.08
2023-04-23T08:37:36.006Z,15.29
2023-04-23T08:40:03.027Z,15.45
2023-04-23T08:42:55.139Z,15.54
2023-04-23T08:45:22.586Z,15.73
2023-04-23T08:47:49.991Z,15.84
2023-04-23T08:50:18.155Z,16.00
2023-04-23T08:52:52.651Z,16.21
2023-04-23T08:55:20.567Z,16.45
2023-04-23T08:57:48.093Z,16.42
2023-04-23T09:00:16.349Z,16.26
2023-04-23T09:02:46.064Z,16.22
2023-04-23T09:05:13.866Z,16.11
2023-04-23T09:07:41.118Z,15.96
2023-04-23T09:10:09.310Z,15.89
2023-04-23T09:12:36.945Z,16.02
2023-04-23T09:15:10.790Z,16.05
2023-04-23T09:17:44.398Z,16.07
2023-04-23T09:20:12.110Z,16.10
2023-04-23T09:22:47.948Z,16.08
2023-04-23T09:25:19.993Z,16.05
2023-04-23T09:27:48.217Z,16.22
2023-04-23T09:30:15.679Z,16.49
2023-04-23T09:32:43.866Z,16.76
2023-04-23T09:35:13.938Z,16.87
2023-04-23T09:37:48.648Z,16.90
2023-04-23T09:40:16.308Z,17.05
2023-04-23T09:42:49.389Z,17.37
2023-04-23T09:45:16.232Z,17.79
2023-04-23T09:47:57.241Z,17.92
2023-04-23T09:50:36.616Z,18.11
2023-04-23T09:53:04.310Z,18.23
2023-04-23T09:55:38.964Z,18.29
2023-04-23T09:58:07.691Z,18.37
2023-04-23T10:00:36.627Z,18.11
2023-04-23T10:03:04.977Z,17.82
2023-04-23T10:05:41.036Z,17.62
2023-04-23T10:08:18.224Z,17.96
2023-04-23T10:11:02.433Z,18.48
2023-04-23T10:13:36.818Z,18.79
2023-04-23T10:16:18.214Z,18.81
2023-04-23T10:18:51.034Z,18.92
2023-04-23T10:21:17.944Z,18.76
2023-04-23T10:23:47.181Z,18.51
2023-04-23T10:26:16.650Z,18.62
2023-04-23T10:28:48.116Z,18.60
2023-04-23T10:31:15.644Z,18.84
2023-04-23T10:33:55.974Z,19.03
2023-04-23T10:36:27.410Z,19.35
2023-04-23T10:38:58.310Z,19.33
2023-04-23T10:41:36.915Z,19.25
2023-04-23T10:44:07.174Z,18.92
2023-04-23T10:46:36.479Z,18.53
2023-04-23T10:49:16.631Z,18.32
2023-04-23T10:52:18.081Z,18.32
2023-04-23T10:54:36.161Z,18.55
2023-04-23T10:57:04.744Z,18.33
2023-04-23T10:59:33.562Z,17.90
2023-04-23T11:02:11.475Z,17.45
2023-04-23T11:04:58.964Z,17.28
2023-04-23T11:07:33.115Z,17.23
2023-04-23T11:10:01.039Z,17.08
2023-04-23T11:12:27.544Z,16.97
2023-04-23T11:14:55.380Z,17.10
2023-04-23T11:17:31.142Z,17.22
2023-04-23T11:20:24.411Z,17.53
2023-04-23T11:22:52.321Z,17.89
2023-04-23T11:25:24.576Z,18.14
2023-04-23T11:27:53.583Z,18.30
2023-04-23T11:30:22.355Z,18.40
2023-04-23T11:32:51.176Z,18.45
2023-04-23T11:35:19.934Z,18.40
2023-04-23T11:37:48.314Z,18.37
2023-04-23T11:40:19.416Z,18.33
2023-04-23T11:42:48.167Z,18.37
2023-04-23T11:45:19.367Z,18.54
2023-04-23T11:47:48.736Z,18.91
2023-04-23T11:50:19.721Z,19.19
2023-04-23T11:52:47.261Z,19.04
2023-04-23T11:55:14.290Z,18.63
2023-04-23T11:57:51.904Z,18.47
2023-04-23T12:00:20.905Z,18.62
2023-04-23T12:03:04.101Z,18.63
2023-04-23T12:05:33.189Z,18.53
2023-04-23T12:08:15.484Z,18.37
2023-04-23T12:10:53.159Z,18.53
2023-04-23T12:13:31.127Z,18.82
2023-04-23T12:16:00.214Z,18.54
2023-04-23T12:18:31.182Z,18.47
2023-04-23T12:21:07.445Z,18.61
2023-04-23T12:23:35.956Z,18.64
2023-04-23T12:26:06.708Z,18.58
2023-04-23T12:28:33.152Z,18.10
2023-04-23T12:31:01.444Z,17.95
2023-04-23T12:33:31.350Z,17.89
2023-04-23T12:35:58.161Z,17.84
2023-04-23T12:38:29.601Z,17.67
2023-04-23T12:40:58.615Z,17.86
2023-04-23T12:43:26.621Z,18.27
2023-04-23T12:45:54.481Z,18.81
2023-04-23T12:48:20.894Z,18.88
2023-04-23T12:50:48.256Z,18.89
2023-04-23T12:53:15.340Z,19.01
2023-04-23T12:55:44.181Z,18.97
2023-04-23T12:58:10.849Z,18.93
2023-04-23T13:00:37.290Z,18.82
2023-04-23T13:03:04.362Z,19.03
2023-04-23T13:05:31.139Z,19.20
2023-04-23T13:07:57.558Z,19.23
2023-04-23T13:10:24.340Z,19.33
2023-04-23T13:12:50.768Z,19.22
2023-04-23T13:15:18.240Z,19.26
2023-04-23T13:17:46.566Z,19.19
2023-04-23T13:20:13.385Z,19.18
2023-04-23T13:22:39.740Z,19.00
2023-04-23T13:25:06.824Z,19.03
2023-04-23T13:27:33.206Z,18.94
2023-04-23T13:29:59.819Z,18.69
2023-04-23T13:32:28.297Z,18.49
2023-04-23T13:34:55.179Z,18.47
2023-04-23T13:37:21.600Z,18.25
2023-04-23T13:39:48.519Z,18.23
2023-04-23T13:42:14.868Z,18.36
2023-04-23T13:44:41.513Z,18.33
2023-04-23T13:47:08.321Z,18.26
2023-04-23T13:49:35.543Z,18.18
2023-04-23T13:52:07.122Z,18.08
2023-04-23T13:54:33.785Z,17.84
2023-04-23T13:57:01.084Z,17.68
2023-04-23T13:59:27.477Z,17.52
2023-04-23T14:01:54.317Z,17.40
2023-04-23T14:04:22.480Z,17.17
2023-04-23T14:06:49.412Z,17.18
2023-04-23T14:09:15.998Z,17.10
2023-04-23T14:11:42.600Z,17.11
2023-04-23T14:14:09.293Z,17.23
2023-04-23T14:16:36.252Z,17.20
2023-04-23T14:19:02.707Z,17.15
2023-04-23T14:21:29.414Z,17.16
2023-04-23T14:24:01.130Z,17.15
2023-04-23T14:26:44.780Z,17.04
2023-04-23T14:29:38.884Z,17.15
2023-04-23T14:32:06.337Z,17.15
2023-04-23T14:34:35.945Z,17.18
2023-04-23T14:37:03.180Z,17.30
2023-04-23T14:39:30.148Z,17.27
2023-04-23T14:41:56.587Z,17.05
2023-04-23T14:44:29.150Z,16.99
2023-04-23T14:46:56.712Z,16.97
2023-04-23T14:49:24.147Z,16.97
2023-04-23T14:51:55.413Z,16.99
2023-04-23T14:54:22.654Z,17.12
2023-04-23T14:56:50.573Z,17.11
2023-04-23T14:59:17.614Z,17.13
2023-04-23T15:01:44.193Z,17.02
2023-04-23T15:04:11.711Z,16.93
2023-04-23T15:06:40.315Z,16.90
2023-04-23T15:09:06.704Z,16.90
2023-04-23T15:11:33.150Z,16.79
2023-04-23T15:14:08.631Z,16.71
2023-04-23T15:16:48.243Z,16.62
2023-04-23T15:19:18.380Z,16.60
2023-04-23T15:21:46.010Z,16.72
2023-04-23T15:24:13.336Z,16.64
2023-04-23T15:26:40.070Z,16.45
2023-04-23T15:29:09.958Z,16.42
2023-04-23T15:31:37.492Z,16.52
2023-04-23T15:34:06.091Z,16.34
2023-04-23T15:36:33.563Z,16.12
2023-04-23T15:39:00.345Z,16.03
2023-04-23T15:41:27.470Z,15.89
2023-04-23T15:43:54.939Z,15.88
2023-04-23T15:46:21.482Z,15.91
2023-04-23T15:48:49.022Z,15.74
2023-04-23T15:51:16.134Z,15.75
2023-04-23T15:53:42.693Z,15.45
2023-04-23T15:56:09.076Z,15.26
2023-04-23T15:58:35.989Z,15.28
2023-04-23T16:01:03.041Z,15.22
2023-04-23T16:03:29.718Z,15.15
2023-04-23T16:05:56.298Z,14.81
2023-04-23T16:08:22.915Z,14.56
2023-04-23T16:10:49.415Z,14.60
2023-04-23T16:13:16.045Z,14.50
2023-04-23T16:15:42.451Z,14.32
2023-04-23T16:18:08.928Z,14.09
2023-04-23T16:20:36.725Z,13.88
2023-04-23T16:23:03.176Z,13.67
2023-04-23T16:25:29.812Z,13.42
2023-04-23T16:27:56.586Z,13.19
2023-04-23T16:30:23.808Z,13.09
2023-04-23T16:32:50.355Z,12.97
2023-04-23T16:35:18.222Z,12.83
2023-04-23T16:37:44.655Z,12.85
2023-04-23T16:40:11.288Z,12.78
2023-04-23T16:42:38.123Z,12.74
2023-04-23T16:45:05.160Z,12.69
2023-04-23T16:47:31.599Z,12.61
2023-04-23T16:49:58.237Z,12.64
2023-04-23T16:52:24.983Z,12.54
2023-04-23T16:54:51.523Z,12.52
2023-04-23T16:57:18.694Z,12.59
2023-04-23T16:59:45.251Z,12.57
2023-04-23T17:02:12.041Z,12.53
2023-04-23T17:04:38.937Z,12.57
2023-04-23T17:07:05.561Z,12.52
2023-04-23T17:09:32.398Z,12.48
2023-04-23T17:11:59.266Z,12.58
2023-04-23T17:14:26.959Z,12.57
2023-04-23T17:16:53.471Z,12.52
2023-04-23T17:19:20.064Z,12.55
2023-04-23T17:21:46.492Z,12.54
2023-04-23T17:24:13.015Z,12.54
2023-04-23T17:26:39.844Z,12.44
2023-04-23T17:29:06.619Z,12.25
2023-04-23T17:31:36.110Z,12.23
2023-04-23T17:34:04.678Z,12.23
2023-04-23T17:36:31.697Z,12.21
2023-04-23T17:38:58.246Z,12.27
2023-04-23T17:41:24.898Z,12.14
2023-04-23T17:43:51.356Z,12.11
2023-04-23T17:46:18.009Z,12.18
2023-04-23T17:48:44.888Z,12.20
2023-04-23T17:51:11.349Z,12.16
2023-04-23T17:53:37.749Z,12.27
2023-04-23T17:56:04.460Z,12.12
2023-04-23T17:58:31.135Z,12.04
2023-04-23T18:00:57.672Z,12.10
2023-04-23T18:03:26.541Z,12.12
2023-04-23T18:05:53.916Z,12.05
2023-04-23T18:08:21.189Z,12.01
2023-04-23T18:10:48.004Z,12.04
2023-04-23T18:13:14.918Z,12.02
2023-04-23T18:15:42.117Z,11.98
2023-04-23T18:18:09.410Z,11.80
2023-04-23T18:20:38.304Z,11.79
2023-04-23T18:23:06.437Z,11.77
2023-04-23T18:25:32.935Z,11.86
2023-04-23T18:27:59.661Z,11.79
2023-04-23T18:30:26.295Z,11.73
2023-04-23T18:33:24.917Z,11.67
2023-04-23T18:35:56.083Z,11.78
2023-04-23T18:38:34.166Z,11.74
2023-04-23T18:41:02.744Z,11.72
2023-04-23T18:43:29.579Z,11.66
2023-04-23T18:45:56.328Z,11.74
2023-04-23T18:48:35.152Z,11.58
2023-04-23T18:51:06.734Z,11.60
2023-04-23T18:53:33.142Z,11.61
2023-04-23T18:56:00.081Z,11.67
2023-04-23T18:58:27.732Z,11.67
2023-04-23T19:00:56.266Z,11.71
2023-04-23T19:03:26.785Z,11.63
2023-04-23T19:05:54.001Z,11.59
2023-04-23T19:08:22.998Z,11.63
2023-04-23T19:10:49.389Z,11.71
2023-04-23T19:13:16.769Z,11.79
2023-04-23T19:15:43.244Z,11.89
2023-04-23T19:18:10.078Z,11.91
2023-04-23T19:20:36.544Z,11.78
2023-04-23T19:23:04.821Z,11.82
2023-04-23T19:25:31.480Z,11.84
2023-04-23T19:27:58.314Z,11.75
2023-04-23T19:30:24.682Z,11.80
2023-04-23T19:32:51.084Z,11.75
2023-04-23T19:35:19.067Z,11.85
2023-04-23T19:37:46.184Z,11.79
2023-04-23T19:40:12.980Z,11.84
2023-04-23T19:42:39.522Z,11.81
2023-04-23T19:45:06.581Z,11.74
2023-04-23T19:47:38.825Z,11.66
2023-04-23T19:50:09.849Z,11.75
2023-04-23T19:52:36.824Z,11.73
2023-04-23T19:55:03.400Z,11.70
2023-04-23T19:57:29.956Z,11.74
2023-04-23T19:59:58.455Z,11.58
2023-04-23T20:02:25.481Z,11.58
2023-04-23T20:04:52.009Z,11.54
2023-04-23T20:07:18.482Z,11.50
2023-04-23T20:09:45.166Z,11.53
2023-04-23T20:12:13.419Z,11.52
2023-04-23T20:14:39.934Z,11.59
2023-04-23T20:17:07.766Z,11.61
2023-04-23T20:19:34.331Z,11.65
2023-04-23T20:22:00.904Z,11.65
2023-04-23T20:24:27.463Z,11.67
2023-04-23T20:26:54.387Z,11.71
2023-04-23T20:29:20.866Z,11.69
2023-04-23T20:31:49.782Z,11.66
2023-04-23T20:34:16.954Z,11.57
2023-04-23T20:36:47.098Z,11.56
2023-04-23T20:39:13.983Z,11.46
2023-04-23T20:41:40.836Z,11.40
2023-04-23T20:44:07.240Z,11.34
2023-04-23T20:46:33.797Z,11.21
2023-04-23T20:49:00.886Z,11.00
2023-04-23T20:51:33.152Z,11.04
2023-04-23T20:54:00.711Z,10.91
2023-04-23T20:56:28.029Z,10.85
2023-04-23T20:58:54.575Z,10.81
2023-04-23T21:01:21.513Z,10.79
2023-04-23T21:03:49.070Z,10.73
2023-04-23T21:06:15.748Z,10.74
2023-04-23T21:08:43.073Z,10.74
2023-04-23T21:11:11.559Z,10.66
2023-04-23T21:13:38.206Z,10.63
2023-04-23T21:16:05.397Z,10.58
2023-04-23T21:18:31.959Z,10.55
2023-04-23T21:20:58.423Z,10.49
2023-04-23T21:23:24.852Z,10.42
2023-04-23T21:25:51.624Z,10.42
2023-04-23T21:28:18.656Z,10.39
2023-04-23T21:30:49.690Z,10.32
2023-04-23T21:33:17.813Z,10.23
2023-04-23T21:35:44.952Z,10.22
2023-04-23T21:38:12.152Z,10.26
2023-04-23T21:40:39.559Z,10.23
2023-04-23T21:43:07.298Z,10.16
2023-04-23T21:45:34.036Z,10.03
2023-04-23T21:48:00.883Z,10.16
2023-04-23T21:50:29.492Z,10.10
2023-04-23T21:52:58.282Z,9.89
2023-04-23T21:55:29.293Z,9.94
2023-04-23T21:58:03.277Z,9.90
2023-04-23T22:00:40.731Z,9.93
2023-04-23T22:03:08.048Z,9.96
2023-04-23T22:05:36.198Z,9.95
2023-04-23T22:08:02.745Z,9.89
2023-04-23T22:10:29.801Z,9.91
2023-04-23T22:12:56.345Z,9.89
2023-04-23T22:15:23.111Z,9.99
2023-04-23T22:17:54.136Z,9.91
2023-04-23T22:20:23.707Z,9.91
2023-04-23T22:22:50.160Z,9.93
2023-04-23T22:25:17.989Z,9.84
2023-04-23T22:27:44.448Z,9.77
2023-04-23T22:30:11.204Z,9.80
2023-04-23T22:32:39.413Z,9.82
2023-04-23T22:35:07.225Z,9.82
2023-04-23T22:37:34.287Z,9.81
2023-04-23T22:40:01.382Z,9.91
2023-04-23T22:42:27.950Z,9.90
2023-04-23T22:44:54.441Z,9.95
2023-04-23T22:47:21.412Z,10.04
2023-04-23T22:49:47.917Z,10.07
2023-04-23T22:52:15.058Z,10.04
2023-04-23T22:54:42.524Z,10.11
2023-04-23T22:57:09.850Z,10.14
2023-04-23T22:59:36.559Z,10.16
2023-04-23T23:02:03.284Z,10.12
2023-04-23T23:04:29.784Z,10.20
2023-04-23T23:06:56.273Z,10.18
2023-04-23T23:09:23.146Z,10.14
2023-04-23T23:11:49.660Z,10.28
2023-04-23T23:14:17.567Z,10.29
2023-04-23T23:16:43.973Z,10.29
2023-04-23T23:19:12.220Z,10.25
2023-04-23T23:21:39.136Z,10.25
2023-04-23T23:24:05.945Z,10.31
2023-04-23T23:26:32.496Z,10.21
2023-04-23T23:28:58.866Z,10.20
2023-04-23T23:31:26.241Z,10.19
2023-04-23T23:33:53.772Z,10.19
2023-04-23T23:36:20.794Z,10.25
2023-04-23T23:38:47.498Z,10.31
2023-04-23T23:41:14.960Z,10.32
2023-04-23T23:43:42.079Z,10.34
2023-04-23T23:46:09.146Z,10.33
2023-04-23T23:48:35.760Z,10.37
2023-04-23T23:51:02.186Z,10.42
2023-04-23T23:53:31.067Z,10.39
2023-04-23T23:55:57.895Z,10.34
2023-04-23T23:58:24.258Z,10.38
